KCOD

Yellowstone Regional Airport

Cody, Wyoming, USA
METAR KCOD 221356Z AUTO 16005KT 10SM BKN100 06/M01 A3022 RMK AO2 SLP228 T00561006
Observed Flight Rules
Oct-22 @ 13:56 UTC (an hour ago) Visual Flight Rules
Wind Visibility Clouds
160° at 5 knots 10 miles
  • Broken at 10,000' AGL
Temperatures Readings
Current 6°C / 43°F
Dewpoint -1°C / 30°F
Humidity 61%
Altimeter 30.22" Hg
Pressure 1022.8 hPa
Elevation 1553
METAR KCOD 221356Z AUTO 16005KT 10SM BKN100 06/M01 A3022 RMK AO2 SLP228 T00561006
Observed Flight Rules
Oct-22 @ 13:56 UTC
(an hour ago)
VFR
Wind Visibility
160° at 5 knots 10 miles
Clouds
  • Broken at 10,000' AGL
Temperature Dewpoint
6°C / 43°F -1°C / 30°F
Humidity Altimeter Pressure
61% 30.22" Hg 1022.8 hPa